»·PEaware :: ASA5150 KPDX-KSFO

ASA5150 :: KPDX-KSFO

FLIGHT INFORMATION

Flight Status: Arrived
Operator:
Alaska Airlines
More flights by this operator :: More flights under this callsign
Pilot: Anonymous 17686 (17686)
Aircraft: BOEING 737-900
(B739)
More flights by this aircraft type
Origin: KPDX Portland Intl
United States
Destination: KSFO San Francisco Intl
United States
More flights between these airports :: More routes between these airports
Route: +MINNE5 EASON Q1 ETCHY MLBEC STLER3
File this flight plan on PilotEdge
Remarks:
Altitude:
(Current/Filed)
35,000ft
Speed:
(Current/Filed)
400kts
Departed: 02-Feb-19 09:56 PM
Arrived: 02-Feb-19 11:15 PM
Distance/Time
Traveled:
479nm/1:19
Distance/Time
To Go:
Arrived

Flight Plot

Page will automatically refresh every two minutes.

Flight plan parsing failed; only flown route is shown


Map Options




Map Legend


Flown Route
Filed Route
Departure Airport
Arrival Airport
Navaid (VOR, NDB)
Fix

Horizontal Profiles

Position Reports

Time Latitude Longitude Heading Altitude Ground
Speed
02-Feb-19 21:28 45.590814 -122.593058 240 37ft 0kts
02-Feb-19 21:29 45.590814 -122.593058 240 38ft 0kts
02-Feb-19 21:30 45.590814 -122.593058 240 38ft 0kts
02-Feb-19 21:31 45.590814 -122.593058 240 38ft 0kts
02-Feb-19 21:32 45.590814 -122.593058 240 38ft 0kts
02-Feb-19 21:33 45.590814 -122.593058 240 38ft 0kts
02-Feb-19 21:34 45.590814 -122.593058 240 38ft 0kts
02-Feb-19 21:35 45.590814 -122.593058 240 38ft 0kts
02-Feb-19 21:36 45.590814 -122.593058 240 38ft 0kts
02-Feb-19 21:37 45.590814 -122.593058 240 38ft 0kts
02-Feb-19 21:38 45.590814 -122.593058 240 38ft 0kts
02-Feb-19 21:39 45.590814 -122.593058 240 38ft 0kts
02-Feb-19 21:40 45.590814 -122.593058 240 38ft 0kts
02-Feb-19 21:41 45.590814 -122.593058 240 38ft 0kts
02-Feb-19 21:42 45.590814 -122.593058 240 38ft 0kts
02-Feb-19 21:43 45.590814 -122.593058 240 38ft 0kts
02-Feb-19 21:44 45.590817 -122.593050 240 38ft 0kts
02-Feb-19 21:45 45.591257 -122.592513 184 38ft 2kts
02-Feb-19 21:46 45.591625 -122.592823 119 38ft 0kts
02-Feb-19 21:47 45.591625 -122.592823 119 38ft 0kts
02-Feb-19 21:48 45.591309 -122.592035 118 38ft 7kts
02-Feb-19 21:49 45.589879 -122.588572 123 38ft 8kts
02-Feb-19 21:50 45.589535 -122.586670 85 38ft 3kts
02-Feb-19 21:51 45.588727 -122.583242 118 38ft 13kts
02-Feb-19 21:52 45.586330 -122.577101 119 38ft 29kts
02-Feb-19 21:53 45.583455 -122.569769 119 38ft 18kts
02-Feb-19 21:54 45.583437 -122.567032 323 38ft 0kts
02-Feb-19 21:55 45.592222 -122.588986 299 129ft 169kts
02-Feb-19 21:56 45.612987 -122.652642 293 2633ft 215kts
02-Feb-19 21:57 45.641692 -122.738401 304 6158ft 235kts
02-Feb-19 21:58 45.674954 -122.832480 271 8655ft 290kts
02-Feb-19 21:59 45.634679 -122.924582 197 11589ft 314kts
02-Feb-19 22:00 45.537482 -122.933373 184 13427ft 370kts
02-Feb-19 22:01 45.433281 -122.944447 185 16304ft 381kts
02-Feb-19 22:02 45.325599 -122.956794 185 18839ft 393kts
02-Feb-19 22:03 45.215067 -122.974645 194 20910ft 407kts
02-Feb-19 22:04 45.106246 -123.026712 199 22696ft 419kts
02-Feb-19 22:05 44.994405 -123.082982 198 24261ft 430kts
02-Feb-19 22:07 44.880610 -123.139927 198 25661ft 439kts
02-Feb-19 22:08 44.764543 -123.198075 198 26865ft 447kts
02-Feb-19 22:09 44.646021 -123.256900 197 27896ft 455kts
02-Feb-19 22:10 44.525728 -123.314185 191 29103ft 453kts
02-Feb-19 22:11 44.401259 -123.324130 176 30247ft 448kts
02-Feb-19 22:12 44.276383 -123.319678 176 31129ft 450kts
02-Feb-19 22:13 44.150725 -123.314841 176 31930ft 452kts
02-Feb-19 22:14 44.024433 -123.309855 176 32672ft 454kts
02-Feb-19 22:15 43.897671 -123.304821 177 33438ft 454kts
02-Feb-19 22:16 43.771527 -123.299867 177 34115ft 454kts
02-Feb-19 22:17 43.644721 -123.294895 177 34533ft 457kts
02-Feb-19 22:18 43.518355 -123.289963 178 34545ft 454kts
02-Feb-19 22:19 43.391707 -123.285036 178 34549ft 455kts
02-Feb-19 22:20 43.264957 -123.280125 178 34550ft 456kts
02-Feb-19 22:21 43.137730 -123.275217 178 34549ft 457kts
02-Feb-19 22:22 43.010852 -123.270340 178 34546ft 457kts
02-Feb-19 22:23 42.883262 -123.265456 178 34541ft 457kts
02-Feb-19 22:24 42.755963 -123.260596 178 34535ft 459kts
02-Feb-19 22:25 42.628105 -123.255746 179 34532ft 459kts
02-Feb-19 22:26 42.500681 -123.250936 179 34534ft 460kts
02-Feb-19 22:26 42.394056 -123.246979 179 34541ft 460kts
02-Feb-19 22:28 42.244478 -123.241472 179 34552ft 461kts
02-Feb-19 22:29 42.116304 -123.236786 179 34555ft 461kts
02-Feb-19 22:29 42.009710 -123.232888 179 34558ft 461kts
02-Feb-19 22:30 41.880815 -123.228163 180 34561ft 463kts
02-Feb-19 22:31 41.751712 -123.223473 180 34565ft 463kts
02-Feb-19 22:32 41.622598 -123.218813 180 34574ft 463kts
02-Feb-19 22:33 41.493858 -123.214338 180 34587ft 463kts
02-Feb-19 22:34 41.364622 -123.209877 180 34590ft 464kts
02-Feb-19 22:35 41.235911 -123.206334 181 34598ft 464kts
02-Feb-19 22:36 41.106463 -123.203069 181 34605ft 465kts
02-Feb-19 22:37 40.977195 -123.199813 181 34609ft 465kts
02-Feb-19 22:38 40.847388 -123.196550 181 34612ft 465kts
02-Feb-19 22:39 40.718041 -123.193310 181 34615ft 466kts
02-Feb-19 22:40 40.588006 -123.190072 181 34615ft 467kts
02-Feb-19 22:41 40.458325 -123.186849 182 34615ft 467kts
02-Feb-19 22:42 40.328395 -123.183633 182 34614ft 467kts
02-Feb-19 22:43 40.198213 -123.175786 176 34613ft 471kts
02-Feb-19 22:44 40.067825 -123.154181 175 34606ft 471kts
02-Feb-19 22:45 39.937553 -123.132551 176 34602ft 473kts
02-Feb-19 22:46 39.807242 -123.110979 176 34605ft 473kts
02-Feb-19 22:47 39.676506 -123.089408 176 34583ft 472kts
02-Feb-19 22:48 39.546192 -123.068011 176 34572ft 471kts
02-Feb-19 22:49 39.416013 -123.046719 176 34565ft 472kts
02-Feb-19 22:50 39.286051 -123.025542 177 34561ft 471kts
02-Feb-19 22:51 39.155834 -123.004362 177 34559ft 472kts
02-Feb-19 22:52 39.025589 -122.983291 177 33380ft 472kts
02-Feb-19 22:53 38.894638 -122.962194 176 30165ft 471kts
02-Feb-19 22:54 38.778799 -122.931307 169 27831ft 459kts
02-Feb-19 22:55 38.656752 -122.894467 169 25339ft 441kts
02-Feb-19 22:56 38.540353 -122.860133 169 23500ft 411kts
02-Feb-19 22:57 38.429953 -122.827597 169 21103ft 400kts
02-Feb-19 22:58 38.323925 -122.796539 168 18990ft 382kts
02-Feb-19 22:59 38.223212 -122.767110 168 17342ft 355kts
02-Feb-19 23:00 38.129396 -122.739761 168 15552ft 339kts
02-Feb-19 23:01 38.038821 -122.713501 168 13674ft 327kts
02-Feb-19 23:02 37.951787 -122.688329 169 11764ft 307kts
02-Feb-19 23:03 37.887517 -122.646206 110 11238ft 252kts
02-Feb-19 23:04 37.885334 -122.557207 94 9669ft 252kts
02-Feb-19 23:05 37.885727 -122.469339 100 8183ft 243kts
02-Feb-19 23:06 37.876673 -122.386174 104 6762ft 234kts
02-Feb-19 23:07 37.868082 -122.305795 104 5382ft 225kts
02-Feb-19 23:08 37.841381 -122.247419 176 4038ft 201kts
02-Feb-19 23:09 37.794004 -122.262511 198 3943ft 171kts
02-Feb-19 23:10 37.751057 -122.284840 200 2822ft 175kts
02-Feb-19 23:11 37.708911 -122.312873 201 1841ft 163kts
02-Feb-19 23:12 37.669890 -122.338845 202 1028ft 156kts
02-Feb-19 23:13 37.631729 -122.364454 201 244ft 156kts
02-Feb-19 23:14 37.610481 -122.379968 240 21ft 24kts
02-Feb-19 23:15 37.611928 -122.382850 24 21ft 16kts
02-Feb-19 23:16 37.615190 -122.381243 266 21ft 5kts
02-Feb-19 23:17 37.615126 -122.381909 263 21ft 0kts
02-Feb-19 23:18 37.615126 -122.381909 263 21ft 0kts
02-Feb-19 23:19 37.615126 -122.381909 263 21ft 0kts
02-Feb-19 23:20 37.615126 -122.381909 263 21ft 0kts

Navigation Log

Ident Type
Flight plan parsing failed, navigation log unavailable